Flight Track Log - Related Links

Times and Time Zones

All times are in EDT time to prevent confusion due to time zone crossing. See the N544GA flight status page for this flight to view local times or setup timezone preferences in your user account.

Time Position Orientation Groundspeed Altitude Reporting Facility
EDT Latitude Longitude Course Direction KTS MPH feet Rate Location/Type
Mon 04:57:22 PM 40.7000 -73.4333 229° Southwest 156 180 1,900  Level New York TRACON
Mon 04:58:22 PM 40.6667 -73.4833 229° Southwest 192 221 3,100 1,368 Climbing New York TRACON
Mon 04:59:16 PM 40.6500 -73.5500 252° West 196 226 4,500 1,500 Climbing New York TRACON
Mon 05:00:22 PM 40.6500 -73.6333 270° West 197 227 6,100 1,476 Climbing New York TRACON
Mon 05:01:22 PM 40.6333 -73.7000 252° West 188 216 7,600 1,450 Climbing New York TRACON
Mon 05:02:22 PM 40.6167 -73.7667 252° West 210 242 9,000 1,600 Climbing New York TRACON
Mon 05:03:22 PM 40.6000 -73.8500 255° West 190 219 10,800 1,050 Climbing New York TRACON
Mon 05:04:22 PM 40.5833 -73.9167 252° West 231 266 11,100 143 Climbing New York TRACON
Mon 05:05:28 PM 40.5167 -73.9833 217° Southwest 260 299 11,100  Level New York TRACON
Mon 05:06:28 PM 40.4833 -74.0667 242° Southwest 261 300 11,100 150 Level New York TRACON
Mon 05:07:28 PM 40.4667 -74.1500 255° West 259 298 11,400 350 Climbing New York TRACON
Mon 05:08:28 PM 40.4333 -74.2500 246° West 256 295 11,800 895 Climbing New York TRACON
Mon 05:09:22 PM 40.4167 -74.3167 252° West 233 268 13,100 1,200 Climbing New York TRACON
Mon 05:10:28 PM 40.4000 -74.4000 255° West 223 257 14,200 343 Climbing New York TRACON
Mon 05:12:17 PM 40.3739 -74.5497 257° West 244 281 14,100 -35 Descending New York Center
Mon 05:13:18 PM 40.3917 -74.6458 284° West 262 302 14,100 1,008 Level New York Center
Mon 05:14:16 PM 40.4136 -74.7425 287° West 261 300 16,100 1,714 Climbing New York Center
Mon 05:15:17 PM 40.4297 -74.8172 286° West 238 274 17,500 1,210 Climbing New York Center
Mon 05:16:15 PM 40.4414 -74.8997 281° West 228 262 18,500 966 Climbing New York Center
Mon 05:17:15 PM 40.4517 -74.9658 282° West 221 254 19,400 787 Climbing New York Center
Mon 05:18:17 PM 40.4614 -75.0456 279° West 221 254 20,100 295 Climbing New York Center
Mon 05:19:17 PM 40.4725 -75.1333 279° West 242 278 20,000  Descending New York Center
Mon 05:20:17 PM 40.4892 -75.2492 281° West 271 312 20,100 458 Climbing New York Center
Mon 05:21:15 PM 40.4836 -75.3414 266° West 271 312 20,900 454 Climbing New York Center
Mon 05:22:16 PM 40.4675 -75.4333 257° West 271 312 21,000 49 Climbing New York Center
Mon 05:23:17 PM 40.4428 -75.5269 251° West 271 312 21,000 198 Level New York Center
Mon 05:24:17 PM 40.4161 -75.6178 249° West 276 318 21,400 595 Climbing New York Center
Mon 05:25:18 PM 40.3939 -75.7064 252° West 281 323 22,200 706 Climbing New York Center
Mon 05:26:16 PM 40.3714 -75.7919 251° West 262 302 22,800 605 Climbing New York Center
Mon 05:27:17 PM 40.3492 -75.8747 251° West 254 292 23,400 496 Climbing New York Center
Mon 05:28:17 PM 40.3208 -75.9514 244° Southwest 254 292 23,800 356 Climbing New York Center
Mon 05:29:15 PM 40.2983 -76.0342 250° West 249 287 24,100 153 Climbing New York Center
Mon 05:30:15 PM 40.2756 -76.1250 252° West 249 287 24,100  Level New York Center
Mon 05:31:16 PM 40.2506 -76.2156 250° West 259 298 24,100  Level New York Center
Mon 05:32:16 PM 40.2256 -76.3061 250° West 266 306 24,100  Level New York Center
Mon 05:33:16 PM 40.2000 -76.4019 251° West 271 312 24,100  Level New York Center
Mon 05:34:17 PM 40.1725 -76.5003 250° West 282 325 24,100  Level New York Center
Mon 05:35:15 PM 40.1464 -76.6039 252° West 282 325 24,100  Level New York Center
Mon 05:36:15 PM 40.1189 -76.6967 249° West 282 325 24,100  Level New York Center
Mon 05:37:17 PM 40.0953 -76.7950 253° West 287 330 24,100 -49 Level New York Center
Mon 05:38:17 PM 40.0817 -76.8944 260° West 282 325 24,000 -37 Descending New York Center
Mon 05:40:00 PM 40.0647 -77.0564 262° West 264 304 24,000 37 Level Cleveland Center
Mon 05:41:00 PM 40.0553 -77.1572 263° West 269 310 24,100 50 Climbing Cleveland Center
Mon 05:42:00 PM 40.0436 -77.2553 261° West 280 322 24,100  Level Cleveland Center
Mon 05:43:00 PM 40.0339 -77.3536 263° West 280 322 24,100  Level Cleveland Center
Mon 05:44:00 PM 40.0242 -77.4544 263° West 280 322 24,100  Level Cleveland Center
Mon 05:45:00 PM 40.0106 -77.5661 261° West 280 322 24,100  Level Cleveland Center
Mon 05:46:00 PM 40.0006 -77.6642 262° West 280 322 24,100 -50 Level Cleveland Center
Mon 05:47:00 PM 39.9906 -77.7622 262° West 280 322 24,000 -50 Descending Cleveland Center
Mon 05:48:00 PM 39.9803 -77.8600 262° West 280 322 24,000 50 Level Cleveland Center
Mon 05:49:00 PM 39.9681 -77.9608 261° West 280 322 24,100 50 Climbing Cleveland Center
Mon 05:50:00 PM 39.9725 -78.0556 274° West 274 315 24,100  Level Cleveland Center
Mon 05:51:00 PM 39.9767 -78.1528 273° West 274 315 24,100  Level Cleveland Center
Mon 05:52:00 PM 39.9786 -78.2475 272° West 269 310 24,100  Level Cleveland Center
Mon 05:53:00 PM 39.9806 -78.3478 271° West 269 310 24,100 -50 Level Cleveland Center
Mon 05:54:00 PM 39.9825 -78.4425 272° West 269 310 24,000 -50 Descending Cleveland Center
Mon 05:55:00 PM 39.9864 -78.5372 273° West 269 310 24,000  Level Cleveland Center
Mon 05:56:00 PM 39.9881 -78.6375 271° West 274 315 24,000 50 Level Cleveland Center
Mon 05:57:00 PM 39.9875 -78.7350 270° West 274 315 24,100 50 Climbing Cleveland Center
Mon 05:58:00 PM 39.9911 -78.8297 273° West 274 315 24,100  Level Cleveland Center
Mon 05:59:00 PM 39.9928 -78.9300 271° West 274 315 24,100 -50 Level Cleveland Center
Mon 06:00:00 PM 39.9958 -79.0167 273° West 274 315 24,000  Descending Cleveland Center
Mon 06:01:00 PM 39.9994 -79.1142 273° West 274 315 24,100 50 Climbing Cleveland Center
Mon 06:02:00 PM 40.0006 -79.2117 271° West 274 315 24,100 -50 Level Cleveland Center
Mon 06:03:00 PM 40.0017 -79.3147 271° West 274 315 24,000 -50 Descending Cleveland Center
Mon 06:04:00 PM 40.0047 -79.4094 272° West 274 315 24,000  Level Cleveland Center
Mon 06:05:00 PM 40.0058 -79.5044 271° West 274 315 24,000 50 Level Cleveland Center
Mon 06:06:00 PM 40.0067 -79.5992 271° West 269 310 24,100 50 Climbing Cleveland Center
Mon 06:07:00 PM 40.0094 -79.6942 272° West 269 310 24,100 -50 Level Cleveland Center
Mon 06:08:00 PM 40.0103 -79.7917 271° West 269 310 24,000  Descending Cleveland Center
Mon 06:09:00 PM 40.0131 -79.8892 272° West 269 310 24,100  Climbing Cleveland Center
Mon 06:10:00 PM 40.0136 -79.9867 270° West 269 310 24,000  Descending Cleveland Center
Mon 06:11:00 PM 40.0139 -80.0842 270° West 269 310 24,100 50 Climbing Cleveland Center
Mon 06:12:00 PM 40.0144 -80.1792 270° West 269 310 24,100  Level Cleveland Center
Mon 06:13:00 PM 40.0167 -80.2850 272° West 269 310 24,100 -50 Level Cleveland Center
Mon 06:14:00 PM 40.0169 -80.3825 270° West 269 310 24,000  Descending Cleveland Center
Mon 06:15:00 PM 40.0150 -80.4800 269° West 269 310 24,100  Climbing Cleveland Center
Mon 06:16:00 PM 40.0172 -80.5750 272° West 269 310 24,000 -50 Descending Cleveland Center
Mon 06:17:00 PM 40.0172 -80.6697 270° West 269 310 24,000 50 Level Cleveland Center
Mon 06:18:00 PM 40.0169 -80.7675 270° West 269 310 24,100  Climbing Cleveland Center
Mon 06:19:00 PM 40.0189 -80.8650 272° West 270 311 24,000 -50 Descending Cleveland Center
Mon 06:20:00 PM 40.0164 -80.9572 268° West 270 311 24,000  Level Cleveland Center
Mon 06:20:48 PM 40.0133 -81.0225 267° West 259 298 24,000  Level Indianapolis Center
Mon 06:21:49 PM 40.0114 -81.1178 269° West 260 299 24,000  Level Indianapolis Center
Mon 06:22:51 PM 40.0097 -81.2128 269° West 260 299 24,000  Level Indianapolis Center
Mon 06:23:53 PM 40.0056 -81.3253 267° West 262 302 24,000  Level Indianapolis Center
Mon 06:24:55 PM 40.0056 -81.4219 270° West 264 304 24,000 48 Level Indianapolis Center
Mon 06:25:57 PM 40.0039 -81.5203 269° West 268 308 24,100  Climbing Indianapolis Center
Mon 06:26:59 PM 40.0019 -81.6150 268° West 261 300 24,000 -48 Descending Indianapolis Center
Mon 06:28:01 PM 40.0008 -81.7136 269° West 267 307 24,000  Level Indianapolis Center
Mon 06:29:03 PM 39.9997 -81.8100 269° West 263 303 24,000  Level Indianapolis Center
Mon 06:30:05 PM 39.9975 -81.9050 268° West 261 300 24,000  Level Indianapolis Center
Mon 06:31:07 PM 39.9953 -82.0003 268° West 261 300 24,000  Level Indianapolis Center
Mon 06:32:09 PM 39.9942 -82.1100 269° West 258 297 24,000  Level Indianapolis Center
Mon 06:33:11 PM 39.9906 -82.2044 267° West 258 297 24,000  Level Indianapolis Center
Mon 06:34:12 PM 39.9897 -82.2983 269° West 258 297 24,000  Level Indianapolis Center
Mon 06:35:14 PM 39.9864 -82.3919 267° West 257 296 24,000  Level Indianapolis Center
Mon 06:36:17 PM 39.9850 -82.4867 269° West 258 297 24,000  Level Indianapolis Center
Mon 06:37:19 PM 39.9825 -82.5814 268° West 259 298 24,000  Level Indianapolis Center
Mon 06:38:21 PM 39.9797 -82.6769 268° West 262 302 24,000  Level Indianapolis Center
Mon 06:39:23 PM 39.9775 -82.7736 268° West 264 304 24,000  Level Indianapolis Center
Mon 06:40:25 PM 39.9747 -82.8856 268° West 264 304 24,000  Level Indianapolis Center
Mon 06:41:27 PM 39.9719 -82.9817 268° West 264 304 24,000  Level Indianapolis Center
Mon 06:42:29 PM 39.9689 -83.0769 268° West 262 302 24,000  Level Indianapolis Center
Mon 06:43:31 PM 39.9667 -83.1728 268° West 262 302 24,000  Level Indianapolis Center
Mon 06:44:33 PM 39.9636 -83.2686 268° West 264 304 24,000  Level Indianapolis Center
Mon 06:45:35 PM 39.9614 -83.3647 268° West 264 304 24,000  Level Indianapolis Center
Mon 06:46:37 PM 39.9583 -83.4769 268° West 267 307 24,000  Level Indianapolis Center
Mon 06:47:39 PM 39.9542 -83.5722 267° West 266 306 24,000  Level Indianapolis Center
Mon 06:48:41 PM 39.9503 -83.6661 267° West 261 300 24,000  Level Indianapolis Center
Mon 06:49:43 PM 39.9528 -83.7594 272° West 257 296 24,000  Level Indianapolis Center
Mon 06:50:45 PM 39.9614 -83.8522 277° West 257 296 24,000  Level Indianapolis Center
Mon 06:51:47 PM 39.9697 -83.9617 276° West 257 296 24,000 -129 Level Indianapolis Center
Mon 06:53:00 PM 39.9778 -84.0722 275° West  Level FlightAware Approximate
Mon 06:53:51 PM 39.9858 -84.1525 275° West 267 307 23,600  Level Indianapolis Center
Mon 06:54:53 PM 39.9936 -84.2514 276° West 272 313 23,000 -484 Descending Indianapolis Center
Mon 06:55:55 PM 40.0008 -84.3506 275° West 273 314 22,600 -435 Descending Indianapolis Center
Mon 06:56:57 PM 40.0094 -84.4517 276° West 277 319 22,100 -339 Descending Indianapolis Center
Mon 06:57:59 PM 40.0169 -84.5489 276° West 270 311 21,900 -48 Descending Indianapolis Center
Mon 06:59:01 PM 40.0242 -84.6603 275° West 262 302 22,000  Climbing Indianapolis Center
Mon 07:00:03 PM 40.0306 -84.7525 275° West 256 295 21,900  Descending Indianapolis Center
Mon 07:01:05 PM 40.0375 -84.8453 276° West 255 293 22,000 -145 Climbing Indianapolis Center
Mon 07:02:07 PM 40.0442 -84.9375 275° West 257 296 21,600 -871 Descending Indianapolis Center
Mon 07:03:09 PM 40.0506 -85.0358 275° West 271 312 20,200 -1,344 Descending Indianapolis Center
Mon 07:04:12 PM 40.0589 -85.1397 276° West 285 328 18,800 -1,392 Descending Indianapolis Center
Mon 07:05:14 PM 40.0675 -85.2619 275° West 284 327 17,300 -1,306 Descending Indianapolis Center
Mon 07:06:16 PM 40.0525 -85.3603 259° West 282 325 16,100 -1,306 Descending Indianapolis Center
Mon 07:07:18 PM 40.0267 -85.4558 251° West 280 322 14,600 -1,403 Descending Indianapolis Center
Mon 07:08:20 PM 40.0078 -85.5506 255° West 271 312 13,200 -1,403 Descending Indianapolis Center
Mon 07:09:22 PM 39.9856 -85.6419 252° West 267 307 11,700 -1,452 Descending Indianapolis Center
Mon 07:10:24 PM 39.9650 -85.7322 253° West 262 302 10,200 -1,610 Descending Indianapolis Center
Mon 07:11:25 PM 39.9406 -85.8342 253° West 248 285 8,400 -1,561 Descending Indianapolis Center
Mon 07:12:27 PM 39.9203 -85.9181 253° West 244 281 7,000 -1,403 Descending Indianapolis Center
Mon 07:13:29 PM 39.9014 -85.9992 253° West 240 276 5,500 -1,403 Descending Indianapolis Center
Mon 07:14:31 PM 39.8828 -86.0758 252° West 232 267 4,100 -1,355 Descending Indianapolis Center
Mon 07:15:33 PM 39.8650 -86.1500 253° West 225 259 2,700 -1,355 Descending Indianapolis Center

Login

Don't have an account? Register now (free) for customized features, flight alerts, and more!